Time;durP1;ratioP1;P1;durP2;ratioP2;P2;SDS_P1;SDS_P2;PMS_P1;PMS_P2;Temp;Humidity;BMP_temperature;BMP_pressure;BME280_temperature;BME280_humidity;BME280_pressure;Samples;Min_cycle;Max_cycle;Signal;HPM_P1;HPM_P2
2021/12/25 00:01:25;;;;;;;8.00;4.53;;;0.00;99.90;;;;;;2603098;54;20917;31
2021/12/25 00:04:00;;;;;;;5.80;3.00;;;0.00;99.90;;;;;;2621635;47;20774;31
2021/12/25 00:06:34;;;;;;;9.60;2.95;;;-0.10;99.90;;;;;;2602998;54;20026;31
2021/12/25 00:09:06;;;;;;;5.68;3.50;;;-0.20;99.90;;;;;;2701885;39;22318;31
2021/12/25 00:11:41;;;;;;;5.20;2.78;;;-0.30;99.90;;;;;;2621061;47;20870;31
2021/12/25 00:14:15;;;;;;;5.32;2.03;;;-0.30;99.90;;;;;;2621328;47;20836;31
2021/12/25 00:16:53;;;;;;;5.65;3.55;;;-0.30;99.90;;;;;;2603155;54;20931;31
2021/12/25 00:19:25;;;;;;;11.97;4.60;;;-0.40;99.90;;;;;;2701693;39;21059;31
2021/12/25 00:22:00;;;;;;;6.03;3.77;;;-0.40;99.90;;;;;;2603120;54;20263;31
2021/12/25 00:24:34;;;;;;;6.25;3.13;;;-0.40;99.90;;;;;;2603131;54;20026;31
2021/12/25 00:27:22;;;;;;;3.90;2.53;;;-0.50;99.90;;;;;;2603033;54;20030;31
2021/12/25 00:30:10;;;;;;;4.25;1.83;;;-0.50;99.90;;;;;;2602942;54;20096;31
2021/12/25 00:32:54;;;;;;;2.08;1.30;;;-0.60;99.90;;;;;;2603264;54;20031;31
2021/12/25 00:35:29;;;;;;;4.93;1.50;;;-0.70;99.90;;;;;;2701824;39;21030;31
2021/12/25 00:38:05;;;;;;;4.18;1.48;;;-0.90;99.90;;;;;;2603152;54;20243;31
2021/12/25 00:40:39;;;;;;;;;;;-1.00;99.90;;;;;;2603439;54;20046;31
2021/12/25 00:43:14;;;;;;;4.50;1.25;;;-1.10;99.90;;;;;;2603113;54;19935;31
2021/12/25 00:45:49;;;;;;;3.10;1.00;;;-1.20;99.90;;;;;;2602965;54;20077;31
2021/12/25 00:48:24;;;;;;;2.15;1.10;;;-1.20;99.90;;;;;;2602712;54;20030;31
2021/12/25 00:51:02;;;;;;;2.78;1.30;;;-1.30;99.90;;;;;;2603511;54;20098;31
2021/12/25 00:53:36;;;;;;;2.75;1.20;;;-1.30;99.90;;;;;;2622539;46;20027;31
2021/12/25 00:56:10;;;;;;;6.75;1.40;;;-1.40;99.90;;;;;;2603759;54;20034;31
2021/12/25 00:58:45;;;;;;;3.87;1.03;;;-1.40;99.90;;;;;;2603721;54;20039;31
2021/12/25 01:01:20;;;;;;;2.77;1.00;;;-1.40;99.90;;;;;;2603702;54;20082;31
2021/12/25 01:03:55;;;;;;;2.58;0.95;;;-1.40;99.90;;;;;;2603777;54;20299;31
2021/12/25 01:06:35;;;;;;;3.53;1.20;;;-1.50;99.90;;;;;;2603614;54;20034;31
2021/12/25 01:09:12;;;;;;;4.57;1.27;;;-1.50;99.90;;;;;;2603835;54;20027;31
2021/12/25 01:11:49;;;;;;;3.78;1.50;;;-1.60;99.90;;;;;;2622234;46;20090;31
2021/12/25 01:14:33;;;;;;;2.55;0.70;;;-1.60;99.90;;;;;;2603941;54;19934;31
2021/12/25 01:17:42;;;;;;;3.85;1.15;;;-1.70;99.90;;;;;;2603721;54;20112;31
2021/12/25 01:23:56;;;;;;;4.25;1.33;;;-1.70;99.90;;;;;;2622176;46;21099;31
2021/12/25 01:26:54;;;;;;;5.80;1.52;;;-1.80;99.90;;;;;;2622293;46;20042;31
2021/12/25 01:38:53;;;;;;;3.85;1.00;;;-2.00;99.90;;;;;;2792594;31;20962;31
2021/12/25 01:42:08;;;;;;;1.70;0.70;;;-2.00;99.90;;;;;;2603567;54;21103;31
2021/12/25 01:48:19;;;;;;;1.80;0.50;;;-2.10;99.90;;;;;;2603492;54;21274;31
2021/12/25 01:50:53;;;;;;;2.85;0.77;;;-2.20;99.90;;;;;;2603690;54;20247;31
2021/12/25 01:53:28;;;;;;;2.95;0.77;;;-2.20;99.90;;;;;;2603739;54;20089;31
2021/12/25 01:56:06;;;;;;;1.30;0.43;;;-2.30;99.90;;;;;;2603595;54;20813;31
2021/12/25 01:58:43;;;;;;;3.65;0.60;;;-2.30;99.90;;;;;;2603544;54;20246;31
2021/12/25 02:01:18;;;;;;;3.17;0.50;;;-2.50;99.90;;;;;;2603305;54;20026;31
2021/12/25 02:03:52;;;;;;;3.90;2.22;;;-2.50;99.90;;;;;;2603318;54;20027;31
2021/12/25 02:06:29;;;;;;;1.65;0.77;;;-2.50;99.90;;;;;;2603521;54;20030;31
2021/12/25 02:09:06;;;;;;;2.65;0.70;;;-2.50;99.90;;;;;;2603718;54;20023;31
2021/12/25 02:11:45;;;;;;;3.22;0.68;;;-2.60;99.90;;;;;;2603446;54;20914;31
2021/12/25 02:14:20;;;;;;;3.60;1.40;;;-2.60;99.90;;;;;;2603438;54;20126;31
2021/12/25 02:16:59;;;;;;;4.57;0.82;;;-2.60;99.90;;;;;;2603607;54;20912;31
2021/12/25 02:19:49;;;;;;;4.22;1.00;;;-2.60;99.90;;;;;;2603423;54;20851;31
2021/12/25 02:22:27;;;;;;;5.32;1.40;;;-2.60;99.90;;;;;;2622140;46;20030;31
2021/12/25 02:25:01;;;;;;;2.10;0.70;;;-2.60;99.90;;;;;;2603483;54;20060;31
2021/12/25 02:27:37;;;;;;;5.03;1.27;;;-2.60;99.90;;;;;;2603351;54;20034;31
2021/12/25 02:30:12;;;;;;;3.42;1.65;;;-2.70;99.90;;;;;;2603473;54;20886;31
2021/12/25 02:32:47;;;;;;;3.58;1.20;;;-2.70;99.90;;;;;;2622058;46;20034;31
2021/12/25 02:35:23;;;;;;;7.75;2.20;;;-2.70;99.90;;;;;;2773507;31;22352;31
2021/12/25 02:37:57;;;;;;;2.40;0.83;;;-2.80;99.90;;;;;;2603545;54;20114;31
2021/12/25 02:40:32;;;;;;;4.22;1.35;;;-2.90;99.90;;;;;;2603502;54;20085;31
2021/12/25 02:43:07;;;;;;;9.20;1.10;;;-2.90;99.90;;;;;;2603526;54;20970;31
2021/12/25 02:45:41;;;;;;;3.20;1.00;;;-2.90;99.90;;;;;;2621501;46;20038;31
2021/12/25 02:48:19;;;;;;;3.90;1.23;;;-2.90;99.90;;;;;;2603496;54;20869;31
2021/12/25 02:50:57;;;;;;;2.80;1.15;;;-3.00;99.90;;;;;;2621952;46;20022;31
2021/12/25 02:53:31;;;;;;;3.43;1.23;;;-3.00;99.90;;;;;;2603456;54;20958;31
2021/12/25 02:56:05;;;;;;;4.78;0.90;;;-3.00;99.90;;;;;;2603513;54;20085;31
2021/12/25 02:58:43;;;;;;;3.65;1.00;;;-3.00;99.90;;;;;;2621856;46;20027;31
2021/12/25 03:01:19;;;;;;;4.28;1.00;;;-3.10;99.90;;;;;;2603460;54;21630;31
2021/12/25 03:03:54;;;;;;;2.80;0.93;;;-3.10;99.90;;;;;;2621875;46;21375;31
2021/12/25 03:06:31;;;;;;;2.80;0.80;;;-3.20;99.90;;;;;;2603349;54;20027;31
2021/12/25 03:09:08;;;;;;;3.53;0.70;;;-3.20;99.90;;;;;;2603402;54;20029;31
2021/12/25 03:11:43;;;;;;;1.33;0.55;;;-3.20;99.90;;;;;;2603362;54;19942;31
2021/12/25 03:14:32;;;;;;;2.13;0.60;;;-3.30;99.90;;;;;;2701573;39;20549;31
2021/12/25 03:17:06;;;;;;;2.45;0.63;;;-3.30;99.90;;;;;;2621912;46;20033;31
2021/12/25 03:19:42;;;;;;;1.65;0.40;;;-3.40;99.90;;;;;;2603369;54;20085;31
2021/12/25 03:22:19;;;;;;;2.10;0.63;;;-3.40;99.90;;;;;;2603187;54;20074;31
2021/12/25 03:24:53;;;;;;;2.15;0.50;;;-3.40;99.90;;;;;;2603108;54;20057;31
2021/12/25 03:27:27;;;;;;;2.25;0.55;;;-3.40;99.90;;;;;;2603204;54;20226;31
2021/12/25 03:30:02;;;;;;;3.15;0.80;;;-3.40;99.90;;;;;;2603300;54;20034;31
2021/12/25 03:32:36;;;;;;;3.17;0.80;;;-3.40;99.90;;;;;;2603125;54;20049;31
2021/12/25 03:35:10;;;;;;;4.20;1.00;;;-3.40;99.90;;;;;;2603187;54;20153;31
2021/12/25 03:37:47;;;;;;;3.78;0.90;;;-3.40;99.90;;;;;;2603090;54;20042;31
2021/12/25 03:40:23;;;;;;;6.43;1.00;;;-3.40;99.90;;;;;;2603213;54;20873;31
2021/12/25 03:42:57;;;;;;;3.60;0.70;;;-3.40;99.90;;;;;;2603047;54;20274;31
2021/12/25 03:45:32;;;;;;;3.40;0.80;;;-3.40;99.90;;;;;;2603141;54;20046;31
2021/12/25 03:48:13;;;;;;;3.55;0.75;;;-3.40;99.90;;;;;;2621389;46;20087;31
2021/12/25 03:57:37;;;;;;;5.25;0.65;;;-3.40;99.90;;;;;;2621909;47;20033;31
2021/12/25 03:59:22;;;;;;;3.40;0.82;;;-3.50;99.90;;;;;;2603033;54;20027;31
2021/12/25 04:02:05;;;;;;;2.77;0.70;;;-3.40;99.90;;;;;;2621654;47;20861;31
2021/12/25 04:04:45;;;;;;;3.45;1.10;;;-3.50;99.90;;;;;;2621215;47;20986;31
2021/12/25 04:07:40;;;;;;;4.63;1.13;;;-3.40;99.90;;;;;;2602930;54;20030;31
2021/12/25 04:10:18;;;;;;;3.80;0.80;;;-3.40;99.90;;;;;;2603002;54;20060;31
2021/12/25 04:12:56;;;;;;;2.47;0.63;;;-3.40;99.90;;;;;;2603076;54;20807;31
2021/12/25 04:15:31;;;;;;;3.58;1.05;;;-3.40;99.90;;;;;;2602961;54;20046;31
2021/12/25 04:18:07;;;;;;;3.92;1.13;;;-3.40;99.90;;;;;;2602918;54;20936;31
2021/12/25 04:20:41;;;;;;;3.45;1.08;;;-3.40;99.90;;;;;;2621540;47;20030;31
2021/12/25 04:23:23;;;;;;;7.05;1.00;;;-3.40;99.90;;;;;;2603170;54;20029;31
2021/12/25 04:26:00;;;;;;;4.20;0.82;;;-3.40;99.90;;;;;;2621757;47;20027;31
2021/12/25 04:28:42;;;;;;;5.30;1.65;;;-3.40;99.90;;;;;;2603953;54;20057;31
2021/12/25 04:31:35;;;;;;;4.10;1.20;;;-3.30;99.90;;;;;;2622451;46;20056;31
2021/12/25 04:47:42;;;;;;;5.30;1.23;;;-3.40;99.90;;;;;;2603967;54;20041;31
2021/12/25 05:02:42;;;;;;;5.13;1.60;;;-3.40;99.90;;;;;;2603697;54;20908;31
2021/12/25 05:05:19;;;;;;;4.43;1.60;;;-3.50;99.90;;;;;;2622059;46;20895;31
2021/12/25 05:08:11;;;;;;;4.65;1.92;;;-3.50;99.90;;;;;;2603772;54;20053;31
2021/12/25 05:10:46;;;;;;;5.80;1.63;;;-3.50;99.90;;;;;;2603566;54;19982;31
2021/12/25 05:13:21;;;;;;;5.97;2.20;;;-3.50;99.90;;;;;;2603446;54;20026;31
2021/12/25 05:15:59;;;;;;;4.70;2.20;;;-3.50;99.90;;;;;;2603653;54;20027;31
2021/12/25 05:18:35;;;;;;;13.35;2.90;;;-3.60;99.90;;;;;;2603576;54;20064;31
2021/12/25 05:21:09;;;;;;;3.90;1.20;;;-3.60;99.90;;;;;;2603504;54;20927;31
2021/12/25 05:23:45;;;;;;;4.25;1.17;;;-3.60;99.90;;;;;;2621763;46;20045;31
2021/12/25 05:26:20;;;;;;;2.93;1.13;;;-3.60;99.90;;;;;;2603770;54;20049;31
2021/12/25 05:29:01;;;;;;;3.30;1.10;;;-3.60;99.90;;;;;;2603634;54;20840;31
2021/12/25 05:31:45;;;;;;;2.33;1.10;;;-3.60;99.90;;;;;;2603669;54;20914;31
2021/12/25 05:34:26;;;;;;;4.35;1.40;;;-3.70;99.90;;;;;;2603824;54;20027;31
2021/12/25 05:37:05;;;;;;;5.70;1.25;;;-3.70;99.90;;;;;;2792376;31;21262;31
2021/12/25 05:39:58;;;;;;;6.97;1.30;;;-3.70;99.90;;;;;;2603737;54;20057;31
2021/12/25 05:42:37;;;;;;;4.45;1.35;;;-3.80;99.90;;;;;;2622347;46;20046;31
2021/12/25 05:45:12;;;;;;;6.20;1.80;;;-3.80;99.90;;;;;;2603614;54;20030;31
2021/12/25 05:48:13;;;;;;;7.38;1.58;;;-3.80;99.90;;;;;;2603445;54;20076;31
2021/12/25 05:51:05;;;;;;;3.10;1.30;;;-3.80;99.90;;;;;;2702506;39;20974;31
2021/12/25 05:54:00;;;;;;;3.45;1.42;;;-3.90;99.90;;;;;;2622256;46;20026;31
2021/12/25 05:56:57;;;;;;;5.75;2.25;;;-3.90;99.90;;;;;;2603313;54;20027;31
2021/12/25 05:59:50;;;;;;;6.05;2.08;;;-3.90;99.90;;;;;;2603572;54;20073;31
2021/12/25 06:02:48;;;;;;;8.15;2.13;;;-4.00;99.90;;;;;;2603379;54;20042;31
2021/12/25 06:05:38;;;;;;;3.83;1.30;;;-4.00;99.90;;;;;;2603626;54;20027;31
2021/12/25 06:08:13;;;;;;;4.82;1.58;;;-4.00;99.90;;;;;;2603348;54;20037;31
2021/12/25 06:10:47;;;;;;;7.65;2.00;;;-4.00;99.90;;;;;;2603366;54;20075;31
2021/12/25 06:13:22;;;;;;;4.63;1.50;;;-4.00;99.90;;;;;;2603431;54;20038;31
2021/12/25 06:15:59;;;;;;;6.32;1.75;;;-4.00;99.90;;;;;;2602687;54;20030;31
2021/12/25 06:18:51;;;;;;;7.97;2.63;;;-4.10;99.90;;;;;;2702292;39;21037;31
2021/12/25 06:21:31;;;;;;;4.63;1.85;;;-4.20;99.90;;;;;;2701998;39;21201;31
2021/12/25 06:24:49;;;;;;;4.28;1.90;;;-4.40;99.90;;;;;;2603158;54;20034;31
2021/12/25 06:27:41;;;;;;;9.33;2.47;;;-4.40;99.90;;;;;;2622135;46;20027;31
2021/12/25 06:30:30;;;;;;;7.25;2.45;;;-4.30;99.90;;;;;;2773887;31;22502;31
2021/12/25 06:33:11;;;;;;;7.35;2.85;;;-4.30;99.90;;;;;;2603353;54;20095;31
2021/12/25 06:36:02;;;;;;;7.80;2.30;;;-4.30;99.90;;;;;;2702245;39;21079;31
2021/12/25 06:38:59;;;;;;;5.97;2.58;;;-4.30;99.90;;;;;;2603333;54;20266;31
2021/12/25 06:41:50;;;;;;;7.32;2.63;;;-4.30;99.90;;;;;;2622062;46;20836;31
2021/12/25 06:44:27;;;;;;;9.95;3.65;;;-4.30;99.90;;;;;;2621744;46;20081;31
2021/12/25 06:47:05;;;;;;;9.35;4.28;;;-4.40;99.90;;;;;;2603347;54;20027;31
2021/12/25 06:49:42;;;;;;;14.05;5.80;;;-4.40;99.90;;;;;;2720439;39;21114;31
2021/12/25 06:52:41;;;;;;;12.93;6.03;;;-4.40;99.90;;;;;;2603481;54;20026;31
2021/12/25 06:55:24;;;;;;;11.23;6.68;;;-4.50;99.90;;;;;;2603429;54;20849;31
2021/12/25 06:58:20;;;;;;;11.95;5.93;;;-4.50;99.90;;;;;;2603398;54;20042;31
2021/12/25 07:00:55;;;;;;;12.37;6.13;;;-4.50;99.90;;;;;;2603425;54;20815;31
2021/12/25 07:03:30;;;;;;;10.13;5.32;;;-4.50;99.90;;;;;;2603320;54;21007;31
2021/12/25 07:06:27;;;;;;;12.05;5.50;;;-4.50;99.90;;;;;;2603284;54;20034;31
2021/12/25 07:09:34;;;;;;;10.70;5.80;;;-4.60;99.90;;;;;;2603228;54;20038;31
2021/12/25 07:12:35;;;;;;;12.60;5.35;;;-4.60;99.90;;;;;;2603152;54;19941;31
2021/12/25 07:15:24;;;;;;;;;;;-4.60;99.90;;;;;;2603334;54;20022;31
2021/12/25 07:18:17;;;;;;;17.08;7.97;;;-4.70;99.90;;;;;;2603138;54;19950;31
2021/12/25 07:21:12;;;;;;;27.48;12.73;;;-4.70;99.90;;;;;;2603279;54;20026;31
2021/12/25 07:24:03;;;;;;;26.38;12.27;;;-4.70;99.90;;;;;;2603389;54;20030;31
2021/12/25 07:26:47;;;;;;;21.67;11.10;;;-4.80;99.90;;;;;;2603398;54;20905;31
2021/12/25 07:29:48;;;;;;;14.00;7.95;;;-4.80;99.90;;;;;;2603104;54;20893;31
2021/12/25 07:32:23;;;;;;;21.58;12.10;;;-4.70;99.90;;;;;;2603013;54;20086;31
2021/12/25 07:34:57;;;;;;;21.53;11.53;;;-4.70;99.90;;;;;;2603247;54;20954;31
2021/12/25 07:37:33;;;;;;;20.85;10.30;;;-4.70;99.90;;;;;;2603189;54;20344;31
2021/12/25 07:40:12;;;;;;;22.42;11.05;;;-4.70;99.90;;;;;;2603314;54;20038;31
2021/12/25 07:42:46;;;;;;;21.10;11.82;;;-4.80;99.90;;;;;;2603391;54;20093;31
2021/12/25 07:45:56;;;;;;;25.35;14.15;;;-4.80;99.90;;;;;;2603410;54;20121;31
2021/12/25 07:48:33;;;;;;;21.27;12.90;;;-4.70;99.90;;;;;;2603198;54;20992;31
2021/12/25 07:51:09;;;;;;;18.63;11.35;;;-4.70;99.90;;;;;;2603296;54;20860;31
2021/12/25 07:53:45;;;;;;;20.77;11.85;;;-4.70;99.90;;;;;;2603317;54;20033;31
2021/12/25 07:56:25;;;;;;;25.40;14.43;;;-4.70;99.90;;;;;;2603221;54;20026;31
2021/12/25 07:59:00;;;;;;;25.23;15.30;;;-4.70;99.90;;;;;;2603126;54;20940;31
2021/12/25 08:01:38;;;;;;;24.75;14.18;;;-4.30;99.90;;;;;;2603917;54;20030;31
2021/12/25 08:04:13;;;;;;;20.77;12.57;;;-3.70;99.90;;;;;;2603896;54;20135;31
2021/12/25 08:06:49;;;;;;;43.72;21.13;;;-2.90;99.90;;;;;;2622396;46;20026;31
2021/12/25 08:09:30;;;;;;;33.77;17.27;;;-2.40;99.90;;;;;;2603649;54;20033;31
2021/12/25 08:12:07;;;;;;;19.65;11.20;;;-2.20;99.90;;;;;;2603861;54;20031;31
2021/12/25 08:14:42;;;;;;;14.00;9.00;;;-2.10;99.90;;;;;;2603966;54;20861;31
2021/12/25 08:17:20;;;;;;;33.17;16.98;;;-2.10;99.90;;;;;;2603883;54;20033;31
2021/12/25 08:20:15;;;;;;;78.00;36.97;;;-2.10;99.90;;;;;;2603587;54;20032;31
2021/12/25 08:23:08;;;;;;;84.35;38.38;;;-1.90;99.90;;;;;;2603825;54;20810;31
2021/12/25 08:26:03;;;;;;;126.43;63.45;;;-1.70;99.90;;;;;;2603997;54;20822;31
2021/12/25 08:28:59;;;;;;;96.45;49.15;;;-1.00;99.90;;;;;;2702507;39;21031;31
2021/12/25 08:31:53;;;;;;;123.40;56.10;;;-0.90;99.90;;;;;;2603893;54;20581;31
2021/12/25 08:34:50;;;;;;;108.03;50.75;;;-0.90;99.90;;;;;;2604091;54;20061;31
2021/12/25 08:37:31;;;;;;;80.32;42.90;;;-0.80;99.90;;;;;;2603976;54;20103;31
2021/12/25 08:40:08;;;;;;;44.10;25.00;;;-0.50;99.90;;;;;;2604142;54;20097;31
2021/12/25 08:42:47;;;;;;;46.65;26.80;;;-0.10;99.90;;;;;;2603868;54;20046;31
2021/12/25 08:45:40;;;;;;;42.03;22.52;;;0.40;99.90;;;;;;2603945;54;20037;31
2021/12/25 08:48:15;;;;;;;39.80;22.10;;;0.80;99.90;;;;;;2603842;54;20030;31
2021/12/25 08:50:57;;;;;;;28.80;17.57;;;1.20;99.90;;;;;;2702578;39;20995;31
2021/12/25 08:53:32;;;;;;;35.87;18.83;;;1.40;99.90;;;;;;2622223;46;19941;31
2021/12/25 08:56:07;;;;;;;27.40;16.23;;;1.50;99.90;;;;;;2603794;54;19993;31
2021/12/25 08:58:42;;;;;;;26.15;13.95;;;1.70;99.90;;;;;;2603867;54;20030;31
2021/12/25 09:01:17;;;;;;;22.83;12.48;;;2.00;99.90;;;;;;2604000;54;20030;31
2021/12/25 09:03:55;;;;;;;27.97;14.77;;;2.20;99.90;;;;;;2604060;54;20037;31
2021/12/25 09:06:41;;;;;;;25.70;14.07;;;2.40;99.90;;;;;;2603854;54;20057;31
2021/12/25 09:09:16;;;;;;;25.63;13.13;;;2.60;99.90;;;;;;2603869;54;20033;31
2021/12/25 09:11:50;;;;;;;16.02;8.10;;;2.50;99.90;;;;;;2621821;46;20049;31
2021/12/25 09:14:24;;;;;;;14.95;6.55;;;2.40;99.90;;;;;;2621481;46;20042;31
2021/12/25 09:16:59;;;;;;;15.98;6.30;;;2.60;99.90;;;;;;2603613;54;20031;31
2021/12/25 09:19:33;;;;;;;10.60;5.00;;;2.80;99.90;;;;;;2603661;54;20769;31
2021/12/25 09:22:10;;;;;;;10.15;5.82;;;2.80;99.90;;;;;;2603630;54;20894;31
2021/12/25 09:24:42;;;;;;;10.40;5.05;;;2.90;99.90;;;;;;2702441;39;22408;31
2021/12/25 09:27:16;;;;;;;8.88;3.60;;;3.00;99.90;;;;;;2603626;54;19965;31
2021/12/25 09:29:54;;;;;;;18.80;8.02;;;3.10;99.90;;;;;;2603527;54;20022;31
2021/12/25 09:32:28;;;;;;;12.55;6.53;;;3.20;99.90;;;;;;2603582;54;20105;31
2021/12/25 09:35:03;;;;;;;25.05;12.13;;;3.30;99.90;;;;;;2622121;46;20112;31
2021/12/25 09:37:41;;;;;;;33.45;14.90;;;3.00;99.90;;;;;;2603791;54;20034;31
2021/12/25 09:40:19;;;;;;;34.60;17.30;;;3.10;99.90;;;;;;2603680;54;20061;31
2021/12/25 09:42:55;;;;;;;20.45;9.45;;;3.10;99.90;;;;;;2603538;54;20911;31
2021/12/25 09:45:29;;;;;;;11.48;4.53;;;3.00;99.90;;;;;;2603645;54;20180;31
2021/12/25 09:48:05;;;;;;;11.55;4.18;;;2.80;99.90;;;;;;2603591;54;20864;31
2021/12/25 09:50:40;;;;;;;9.85;4.30;;;2.70;99.90;;;;;;2603739;54;20153;31
2021/12/25 09:53:20;;;;;;;10.73;5.65;;;2.60;99.90;;;;;;2603600;54;20033;31
2021/12/25 09:55:55;;;;;;;12.68;6.75;;;2.60;99.90;;;;;;2603522;54;20030;31
2021/12/25 09:58:31;;;;;;;11.10;5.03;;;2.60;99.90;;;;;;2603577;54;20030;31
2021/12/25 10:01:05;;;;;;;15.52;6.20;;;2.60;99.90;;;;;;2603699;54;20057;31
2021/12/25 10:03:45;;;;;;;13.10;6.75;;;2.30;99.90;;;;;;2621731;46;20026;31
2021/12/25 10:06:34;;;;;;;11.40;6.35;;;2.30;99.90;;;;;;2603012;54;20026;31
2021/12/25 10:09:26;;;;;;;9.73;4.93;;;2.30;99.90;;;;;;2622374;46;20901;31
2021/12/25 10:12:03;;;;;;;15.23;7.13;;;2.10;99.90;;;;;;2603141;54;20258;31
2021/12/25 10:14:42;;;;;;;12.95;5.55;;;2.10;99.90;;;;;;2622000;46;20096;31
2021/12/25 10:17:17;;;;;;;11.70;5.23;;;2.10;99.90;;;;;;2602988;54;20079;31
2021/12/25 10:20:11;;;;;;;10.80;5.60;;;2.10;99.90;;;;;;2603459;54;20031;31
2021/12/25 10:23:01;;;;;;;11.70;4.80;;;2.10;99.90;;;;;;2603120;54;20058;31
2021/12/25 10:25:47;;;;;;;10.43;4.17;;;1.90;99.90;;;;;;2603515;54;20878;31
2021/12/25 10:28:23;;;;;;;13.50;6.00;;;1.80;99.90;;;;;;2603346;54;20266;31
2021/12/25 10:30:58;;;;;;;12.43;6.40;;;1.70;99.90;;;;;;2622379;46;20900;31
2021/12/25 10:33:34;;;;;;;15.90;7.00;;;1.40;99.90;;;;;;2603462;54;20030;31
2021/12/25 10:36:11;;;;;;;15.63;7.00;;;1.20;99.90;;;;;;2603366;54;19957;31
2021/12/25 10:38:56;;;;;;;14.57;8.15;;;1.20;99.90;;;;;;2603620;54;20027;31
2021/12/25 10:41:35;;;;;;;22.00;10.27;;;1.00;99.90;;;;;;2603639;54;20039;31
2021/12/25 10:44:16;;;;;;;33.90;20.80;;;0.90;99.90;;;;;;2603529;54;20036;31
2021/12/25 10:46:54;;;;;;;28.83;18.58;;;0.80;99.90;;;;;;2603647;54;20061;31
2021/12/25 10:49:30;;;;;;;33.45;20.35;;;0.70;99.90;;;;;;2603449;54;20503;31
2021/12/25 10:52:12;;;;;;;17.07;6.87;;;0.70;99.90;;;;;;2603562;54;20841;31
2021/12/25 10:54:48;;;;;;;17.52;5.28;;;0.80;99.90;;;;;;2603364;54;20033;31
2021/12/25 10:57:38;;;;;;;8.65;3.50;;;0.80;99.90;;;;;;2603478;54;20549;31
2021/12/25 11:00:15;;;;;;;11.45;5.50;;;0.60;99.90;;;;;;2603638;54;20060;31
2021/12/25 11:02:51;;;;;;;22.63;7.40;;;0.60;99.90;;;;;;2603271;54;20026;31
2021/12/25 11:05:27;;;;;;;6.65;2.10;;;0.60;99.90;;;;;;2603504;54;20049;31
2021/12/25 11:08:05;;;;;;;7.32;1.70;;;0.60;99.90;;;;;;2603150;54;20081;31
2021/12/25 11:10:47;;;;;;;5.20;1.40;;;0.60;99.90;;;;;;2603593;54;20043;31
2021/12/25 11:13:27;;;;;;;4.90;1.70;;;0.60;99.90;;;;;;2621695;46;20031;31
2021/12/25 11:16:07;;;;;;;7.03;1.88;;;0.40;99.90;;;;;;2603409;54;20104;31
2021/12/25 11:18:41;;;;;;;3.90;1.70;;;0.40;99.90;;;;;;2603463;54;20026;31
2021/12/25 11:21:16;;;;;;;3.88;1.52;;;0.40;99.90;;;;;;2701970;39;20520;31
2021/12/25 11:23:50;;;;;;;6.13;1.98;;;0.40;99.90;;;;;;2622080;46;20031;31
2021/12/25 11:26:24;;;;;;;3.83;1.10;;;0.40;99.90;;;;;;2621438;46;20880;31
2021/12/25 11:29:01;;;;;;;4.95;1.50;;;0.30;99.90;;;;;;2701928;39;20493;31
2021/12/25 11:31:35;;;;;;;5.68;1.52;;;0.20;99.90;;;;;;2701771;39;20488;31
2021/12/25 11:34:11;;;;;;;4.00;1.17;;;0.20;99.90;;;;;;2621598;46;20485;31
2021/12/25 11:36:50;;;;;;;4.32;1.75;;;0.10;99.90;;;;;;2603325;54;20746;31
2021/12/25 11:39:29;;;;;;;5.03;2.00;;;0.20;99.90;;;;;;2603274;54;20042;31
2021/12/25 11:42:10;;;;;;;3.13;1.50;;;0.10;99.90;;;;;;2621724;46;20033;31
2021/12/25 11:44:50;;;;;;;3.58;1.52;;;0.10;99.90;;;;;;2603464;54;20049;31
2021/12/25 11:47:32;;;;;;;6.65;2.65;;;0.00;99.90;;;;;;2605732;46;20581;31
2021/12/25 11:50:08;;;;;;;7.43;2.75;;;0.00;99.90;;;;;;2603273;54;19935;31
2021/12/25 11:52:47;;;;;;;6.55;3.30;;;-0.10;99.90;;;;;;2603066;54;21284;31
2021/12/25 11:55:46;;;;;;;12.20;3.45;;;-0.20;99.90;;;;;;2701929;39;20481;31
2021/12/25 11:58:40;;;;;;;9.73;4.93;;;-0.30;99.90;;;;;;2603322;54;20030;31
2021/12/25 12:01:36;;;;;;;8.70;3.95;;;-0.30;99.90;;;;;;2603245;54;20026;31
2021/12/25 12:04:17;;;;;;;18.05;6.97;;;-0.50;99.90;;;;;;2603280;54;19934;31
2021/12/25 12:07:22;;;;;;;9.13;4.13;;;-0.60;99.90;;;;;;2621573;47;20026;31
2021/12/25 12:10:48;;;;;;;9.68;4.28;;;-0.70;99.90;;;;;;2603039;54;20046;31
2021/12/25 12:13:43;;;;;;;20.90;7.90;;;-0.80;99.90;;;;;;2603494;54;20089;31
2021/12/25 12:16:44;;;;;;;18.73;6.63;;;-0.80;99.90;;;;;;2603310;54;20541;31
2021/12/25 12:19:50;;;;;;;14.57;5.05;;;-0.90;99.90;;;;;;2603308;54;20239;31
2021/12/25 12:22:45;;;;;;;;;;;-0.80;99.90;;;;;;2603056;54;20022;31
2021/12/25 12:41:39;;;;;;;18.97;7.77;;;-0.50;99.90;;;;;;2626231;53;21963;31
2021/12/25 12:44:15;;;;;;;12.25;6.35;;;-0.10;99.90;;;;;;2588499;38;20292;31
2021/12/25 12:47:06;;;;;;;9.88;5.32;;;-0.30;99.90;;;;;;2590302;54;20936;31
2021/12/25 12:49:57;;;;;;;13.77;6.83;;;-0.40;99.90;;;;;;2589701;54;20026;31
2021/12/25 12:52:36;;;;;;;8.80;4.03;;;-0.60;99.90;;;;;;2590119;54;20938;31
2021/12/25 12:55:13;;;;;;;15.32;6.43;;;-0.70;99.90;;;;;;2589961;54;20884;31
2021/12/25 12:57:49;;;;;;;18.77;9.03;;;-0.70;99.90;;;;;;2590002;54;20095;31
2021/12/25 13:00:27;;;;;;;23.20;10.48;;;-0.80;99.90;;;;;;2608683;46;20120;31
2021/12/25 13:03:00;;;;;;;13.37;6.33;;;-0.90;99.90;;;;;;2688419;38;21408;31
2021/12/25 13:05:34;;;;;;;5.90;2.38;;;-0.90;99.90;;;;;;2607932;46;20030;31
2021/12/25 13:08:17;;;;;;;6.25;3.00;;;-1.00;99.90;;;;;;2706977;38;21340;31
2021/12/25 13:10:51;;;;;;;8.97;2.47;;;-1.00;99.90;;;;;;2590032;54;20026;31
2021/12/25 13:13:27;;;;;;;7.95;3.30;;;-1.00;99.90;;;;;;2759586;31;21397;31
2021/12/25 13:16:11;;;;;;;42.88;22.90;;;-1.00;99.90;;;;;;2608587;46;20905;31
2021/12/25 13:18:44;;;;;;;17.70;9.15;;;-1.10;99.90;;;;;;2589729;54;20811;31
2021/12/25 13:21:16;;;;;;;12.80;6.60;;;-1.20;99.90;;;;;;2688150;38;21412;31
2021/12/25 13:23:51;;;;;;;9.70;3.80;;;-1.20;99.90;;;;;;2590052;54;20495;31
2021/12/25 13:26:31;;;;;;;4.55;1.85;;;-1.20;99.90;;;;;;2706895;38;21333;31
2021/12/25 13:29:06;;;;;;;3.85;1.75;;;-1.30;99.90;;;;;;2608427;46;20172;31
2021/12/25 13:31:46;;;;;;;5.63;1.97;;;-1.40;99.90;;;;;;2590072;54;21404;31
2021/12/25 13:34:21;;;;;;;17.90;5.70;;;-1.40;99.90;;;;;;2589902;54;20022;31
2021/12/25 13:36:55;;;;;;;28.50;14.03;;;-1.30;99.90;;;;;;2589785;54;20057;31
2021/12/25 13:39:34;;;;;;;31.48;14.05;;;-1.40;99.90;;;;;;2589912;54;20077;31
2021/12/25 13:42:10;;;;;;;22.25;11.35;;;-1.40;99.90;;;;;;2586413;54;20763;31
2021/12/25 13:44:50;;;;;;;14.65;7.03;;;-1.50;99.90;;;;;;2586328;54;20942;31
2021/12/25 13:47:28;;;;;;;17.73;9.90;;;-1.50;99.90;;;;;;2586480;54;20919;31
2021/12/25 13:50:02;;;;;;;17.23;7.18;;;-1.60;99.90;;;;;;2586134;54;20791;31
2021/12/25 13:52:37;;;;;;;16.27;7.25;;;-1.60;99.90;;;;;;2586647;54;20030;31
2021/12/25 13:55:13;;;;;;;18.48;7.57;;;-1.70;99.90;;;;;;2586361;54;20767;31
2021/12/25 13:57:47;;;;;;;18.45;8.60;;;-1.80;99.90;;;;;;2604911;46;20813;31
2021/12/25 14:00:21;;;;;;;19.13;8.68;;;-1.90;99.90;;;;;;2586532;54;20046;31
2021/12/25 14:02:58;;;;;;;16.17;9.88;;;-1.90;99.90;;;;;;2586497;54;20963;31
2021/12/25 14:05:33;;;;;;;14.30;7.10;;;-1.90;99.90;;;;;;2586378;54;20954;31
2021/12/25 14:08:08;;;;;;;9.35;5.65;;;-1.90;99.90;;;;;;2605001;46;20759;31
2021/12/25 14:10:42;;;;;;;9.00;5.20;;;-1.90;99.90;;;;;;2586309;54;21022;31
2021/12/25 14:13:17;;;;;;;13.05;5.40;;;-2.00;99.90;;;;;;2586353;54;20889;31
2021/12/25 14:15:53;;;;;;;13.00;6.50;;;-2.00;99.90;;;;;;2604939;46;20351;31
2021/12/25 14:18:33;;;;;;;11.18;5.43;;;-2.00;99.90;;;;;;2604833;46;20875;31
2021/12/25 14:21:18;;;;;;;16.10;5.93;;;-2.00;99.90;;;;;;2604948;46;20032;31
2021/12/25 14:24:02;;;;;;;16.50;8.20;;;-1.90;99.90;;;;;;2586253;54;20048;31
2021/12/25 14:26:37;;;;;;;19.45;7.70;;;-2.00;99.90;;;;;;2586233;54;20144;31
2021/12/25 14:29:21;;;;;;;22.42;7.35;;;-2.00;99.90;;;;;;2586454;54;19957;31
2021/12/25 14:31:54;;;;;;;17.50;7.65;;;-2.00;99.90;;;;;;2586350;54;20027;31
2021/12/25 14:34:33;;;;;;;20.98;7.15;;;-2.00;99.90;;;;;;2754420;31;22398;31
2021/12/25 14:37:06;;;;;;;16.30;6.70;;;-2.00;99.90;;;;;;2586042;54;20723;31
2021/12/25 14:39:40;;;;;;;15.10;6.70;;;-2.00;99.90;;;;;;2586223;54;20878;31
2021/12/25 14:42:13;;;;;;;15.27;7.80;;;-2.00;99.90;;;;;;2604934;46;20126;31
2021/12/25 14:44:46;;;;;;;15.53;7.63;;;-2.00;99.90;;;;;;2586436;54;20028;31
2021/12/25 14:47:20;;;;;;;15.23;6.17;;;-2.00;99.90;;;;;;2586391;54;20026;31
2021/12/25 14:49:59;;;;;;;15.20;7.60;;;-2.10;99.90;;;;;;2604410;46;20231;31
2021/12/25 14:52:33;;;;;;;22.92;8.57;;;-2.10;99.90;;;;;;2585447;54;20800;31
2021/12/25 14:55:16;;;;;;;18.87;8.07;;;-2.20;99.90;;;;;;2586291;54;20912;31
2021/12/25 14:57:48;;;;;;;14.45;7.10;;;-2.20;99.90;;;;;;2586171;54;20801;31
2021/12/25 15:00:25;;;;;;;18.63;8.23;;;-2.30;99.90;;;;;;2586212;54;20588;31
2021/12/25 15:03:10;;;;;;;16.40;6.70;;;-2.40;99.90;;;;;;2586396;54;20036;31
2021/12/25 15:05:49;;;;;;;16.20;6.30;;;-2.40;99.90;;;;;;2604410;46;20263;31